sensor_id;sensor_type;location;lat;lon;timestamp;P1;durP1;ratioP1;P2;durP2;ratioP2
67819;SDS011;54618;52.018;5.576;2023-05-14T00:01:43;4.43;;;2.40;;
67819;SDS011;54618;52.018;5.576;2023-05-14T00:04:10;4.28;;;2.15;;
67819;SDS011;54618;52.018;5.576;2023-05-14T00:06:36;4.57;;;2.20;;
67819;SDS011;54618;52.018;5.576;2023-05-14T00:09:02;5.70;;;2.50;;
67819;SDS011;54618;52.018;5.576;2023-05-14T00:11:28;5.22;;;2.55;;
67819;SDS011;54618;52.018;5.576;2023-05-14T00:13:54;3.45;;;2.33;;
67819;SDS011;54618;52.018;5.576;2023-05-14T00:16:19;5.15;;;2.50;;
67819;SDS011;54618;52.018;5.576;2023-05-14T00:18:45;3.60;;;2.28;;
67819;SDS011;54618;52.018;5.576;2023-05-14T00:21:10;3.38;;;2.20;;
67819;SDS011;54618;52.018;5.576;2023-05-14T00:23:36;4.18;;;2.22;;
67819;SDS011;54618;52.018;5.576;2023-05-14T00:26:02;4.55;;;2.30;;
67819;SDS011;54618;52.018;5.576;2023-05-14T00:28:28;4.25;;;2.40;;
67819;SDS011;54618;52.018;5.576;2023-05-14T00:30:53;5.40;;;2.50;;
67819;SDS011;54618;52.018;5.576;2023-05-14T00:33:20;5.72;;;2.75;;
67819;SDS011;54618;52.018;5.576;2023-05-14T00:35:46;4.47;;;2.67;;
67819;SDS011;54618;52.018;5.576;2023-05-14T00:38:12;5.50;;;2.40;;
67819;SDS011;54618;52.018;5.576;2023-05-14T00:40:41;4.45;;;2.55;;
67819;SDS011;54618;52.018;5.576;2023-05-14T00:43:09;5.13;;;2.63;;
67819;SDS011;54618;52.018;5.576;2023-05-14T00:45:35;4.35;;;2.40;;
67819;SDS011;54618;52.018;5.576;2023-05-14T00:48:01;4.25;;;2.47;;
67819;SDS011;54618;52.018;5.576;2023-05-14T00:50:27;5.13;;;2.40;;
67819;SDS011;54618;52.018;5.576;2023-05-14T00:52:53;4.88;;;2.40;;
67819;SDS011;54618;52.018;5.576;2023-05-14T00:55:19;4.97;;;2.30;;
67819;SDS011;54618;52.018;5.576;2023-05-14T00:57:45;4.45;;;2.35;;
67819;SDS011;54618;52.018;5.576;2023-05-14T01:00:11;4.78;;;2.42;;
67819;SDS011;54618;52.018;5.576;2023-05-14T01:02:37;3.60;;;2.35;;
67819;SDS011;54618;52.018;5.576;2023-05-14T01:05:02;5.43;;;2.67;;
67819;SDS011;54618;52.018;5.576;2023-05-14T01:07:30;5.20;;;2.60;;
67819;SDS011;54618;52.018;5.576;2023-05-14T01:10:20;4.28;;;2.55;;
67819;SDS011;54618;52.018;5.576;2023-05-14T01:13:17;4.68;;;2.60;;
67819;SDS011;54618;52.018;5.576;2023-05-14T01:15:46;4.70;;;2.60;;
67819;SDS011;54618;52.018;5.576;2023-05-14T01:18:13;4.55;;;2.50;;
67819;SDS011;54618;52.018;5.576;2023-05-14T01:20:42;4.88;;;2.53;;
67819;SDS011;54618;52.018;5.576;2023-05-14T01:23:08;4.03;;;2.42;;
67819;SDS011;54618;52.018;5.576;2023-05-14T01:25:34;4.45;;;2.60;;
67819;SDS011;54618;52.018;5.576;2023-05-14T01:28:00;3.63;;;2.10;;
67819;SDS011;54618;52.018;5.576;2023-05-14T01:30:56;4.10;;;2.47;;
67819;SDS011;54618;52.018;5.576;2023-05-14T01:33:28;5.05;;;2.72;;
67819;SDS011;54618;52.018;5.576;2023-05-14T01:35:57;5.90;;;2.70;;
67819;SDS011;54618;52.018;5.576;2023-05-14T01:38:23;3.88;;;2.28;;
67819;SDS011;54618;52.018;5.576;2023-05-14T01:40:51;3.92;;;2.58;;
67819;SDS011;54618;52.018;5.576;2023-05-14T01:43:18;3.97;;;2.40;;
67819;SDS011;54618;52.018;5.576;2023-05-14T01:45:44;4.80;;;2.40;;
67819;SDS011;54618;52.018;5.576;2023-05-14T01:48:10;4.97;;;2.70;;
67819;SDS011;54618;52.018;5.576;2023-05-14T01:50:36;4.40;;;2.63;;
67819;SDS011;54618;52.018;5.576;2023-05-14T01:53:01;3.97;;;2.60;;
67819;SDS011;54618;52.018;5.576;2023-05-14T01:55:27;4.25;;;2.33;;
67819;SDS011;54618;52.018;5.576;2023-05-14T01:57:52;4.32;;;2.53;;
67819;SDS011;54618;52.018;5.576;2023-05-14T02:00:18;4.22;;;2.53;;
67819;SDS011;54618;52.018;5.576;2023-05-14T02:02:45;4.95;;;2.70;;
67819;SDS011;54618;52.018;5.576;2023-05-14T02:05:11;3.90;;;2.13;;
67819;SDS011;54618;52.018;5.576;2023-05-14T02:07:37;3.88;;;2.60;;
67819;SDS011;54618;52.018;5.576;2023-05-14T02:10:03;4.05;;;2.40;;
67819;SDS011;54618;52.018;5.576;2023-05-14T02:12:29;3.67;;;2.60;;
67819;SDS011;54618;52.018;5.576;2023-05-14T02:14:54;3.78;;;2.65;;
67819;SDS011;54618;52.018;5.576;2023-05-14T02:17:20;3.80;;;2.55;;
67819;SDS011;54618;52.018;5.576;2023-05-14T02:19:46;3.83;;;2.63;;
67819;SDS011;54618;52.018;5.576;2023-05-14T02:22:11;4.22;;;2.60;;
67819;SDS011;54618;52.018;5.576;2023-05-14T02:24:37;5.35;;;2.60;;
67819;SDS011;54618;52.018;5.576;2023-05-14T02:27:03;4.40;;;2.72;;
67819;SDS011;54618;52.018;5.576;2023-05-14T02:29:29;4.18;;;2.42;;
67819;SDS011;54618;52.018;5.576;2023-05-14T02:31:54;4.07;;;2.47;;
67819;SDS011;54618;52.018;5.576;2023-05-14T02:34:20;3.42;;;2.50;;
67819;SDS011;54618;52.018;5.576;2023-05-14T02:36:46;4.78;;;2.42;;
67819;SDS011;54618;52.018;5.576;2023-05-14T02:39:11;3.95;;;2.50;;
67819;SDS011;54618;52.018;5.576;2023-05-14T02:41:37;4.97;;;2.80;;
67819;SDS011;54618;52.018;5.576;2023-05-14T02:44:02;4.03;;;2.47;;
67819;SDS011;54618;52.018;5.576;2023-05-14T02:46:29;3.63;;;2.63;;
67819;SDS011;54618;52.018;5.576;2023-05-14T02:48:55;3.88;;;2.70;;
67819;SDS011;54618;52.018;5.576;2023-05-14T02:51:20;4.47;;;2.75;;
67819;SDS011;54618;52.018;5.576;2023-05-14T02:53:46;4.47;;;2.60;;
67819;SDS011;54618;52.018;5.576;2023-05-14T02:56:12;3.70;;;2.40;;
67819;SDS011;54618;52.018;5.576;2023-05-14T02:58:38;4.43;;;2.45;;
67819;SDS011;54618;52.018;5.576;2023-05-14T03:01:03;3.92;;;2.78;;
67819;SDS011;54618;52.018;5.576;2023-05-14T03:03:29;5.65;;;2.80;;
67819;SDS011;54618;52.018;5.576;2023-05-14T03:05:55;3.65;;;2.50;;
67819;SDS011;54618;52.018;5.576;2023-05-14T03:08:21;4.25;;;2.63;;
67819;SDS011;54618;52.018;5.576;2023-05-14T03:10:46;3.55;;;2.47;;
67819;SDS011;54618;52.018;5.576;2023-05-14T03:13:12;3.75;;;2.53;;
67819;SDS011;54618;52.018;5.576;2023-05-14T03:15:41;4.53;;;2.63;;
67819;SDS011;54618;52.018;5.576;2023-05-14T03:18:07;3.15;;;2.33;;
67819;SDS011;54618;52.018;5.576;2023-05-14T03:20:33;7.20;;;2.55;;
67819;SDS011;54618;52.018;5.576;2023-05-14T03:22:59;4.80;;;2.60;;
67819;SDS011;54618;52.018;5.576;2023-05-14T03:25:24;4.13;;;2.70;;
67819;SDS011;54618;52.018;5.576;2023-05-14T03:27:50;3.50;;;2.50;;
67819;SDS011;54618;52.018;5.576;2023-05-14T03:30:16;4.38;;;2.85;;
67819;SDS011;54618;52.018;5.576;2023-05-14T03:32:41;3.95;;;2.60;;
67819;SDS011;54618;52.018;5.576;2023-05-14T03:35:07;3.75;;;2.60;;
67819;SDS011;54618;52.018;5.576;2023-05-14T03:37:33;4.05;;;2.83;;
67819;SDS011;54618;52.018;5.576;2023-05-14T03:39:58;3.75;;;2.53;;
67819;SDS011;54618;52.018;5.576;2023-05-14T03:42:24;4.78;;;2.60;;
67819;SDS011;54618;52.018;5.576;2023-05-14T03:44:49;4.57;;;2.60;;
67819;SDS011;54618;52.018;5.576;2023-05-14T03:47:15;4.95;;;2.55;;
67819;SDS011;54618;52.018;5.576;2023-05-14T03:49:40;3.70;;;2.47;;
67819;SDS011;54618;52.018;5.576;2023-05-14T03:52:06;4.50;;;2.40;;
67819;SDS011;54618;52.018;5.576;2023-05-14T03:54:32;4.28;;;2.85;;
67819;SDS011;54618;52.018;5.576;2023-05-14T03:56:58;3.85;;;2.83;;
67819;SDS011;54618;52.018;5.576;2023-05-14T03:59:23;3.17;;;2.40;;
67819;SDS011;54618;52.018;5.576;2023-05-14T04:01:49;3.55;;;2.60;;
67819;SDS011;54618;52.018;5.576;2023-05-14T04:04:14;4.28;;;2.80;;
67819;SDS011;54618;52.018;5.576;2023-05-14T04:06:40;3.47;;;2.70;;
67819;SDS011;54618;52.018;5.576;2023-05-14T04:09:05;4.55;;;2.75;;
67819;SDS011;54618;52.018;5.576;2023-05-14T04:11:31;3.67;;;2.67;;
67819;SDS011;54618;52.018;5.576;2023-05-14T04:13:56;4.20;;;2.75;;
67819;SDS011;54618;52.018;5.576;2023-05-14T04:16:22;3.53;;;2.55;;
67819;SDS011;54618;52.018;5.576;2023-05-14T04:18:47;3.47;;;2.70;;
67819;SDS011;54618;52.018;5.576;2023-05-14T04:21:13;3.72;;;2.60;;
67819;SDS011;54618;52.018;5.576;2023-05-14T04:23:38;4.68;;;2.65;;
67819;SDS011;54618;52.018;5.576;2023-05-14T04:26:04;4.10;;;2.70;;
67819;SDS011;54618;52.018;5.576;2023-05-14T04:28:30;4.47;;;2.78;;
67819;SDS011;54618;52.018;5.576;2023-05-14T04:30:55;3.70;;;2.60;;
67819;SDS011;54618;52.018;5.576;2023-05-14T04:33:21;3.53;;;2.60;;
67819;SDS011;54618;52.018;5.576;2023-05-14T04:35:47;3.78;;;2.80;;
67819;SDS011;54618;52.018;5.576;2023-05-14T04:38:12;4.38;;;2.85;;
67819;SDS011;54618;52.018;5.576;2023-05-14T04:40:38;4.07;;;2.72;;
67819;SDS011;54618;52.018;5.576;2023-05-14T04:43:05;4.07;;;2.70;;
67819;SDS011;54618;52.018;5.576;2023-05-14T04:45:31;4.20;;;2.70;;
67819;SDS011;54618;52.018;5.576;2023-05-14T04:47:57;4.57;;;2.70;;
67819;SDS011;54618;52.018;5.576;2023-05-14T04:50:23;4.03;;;2.50;;
67819;SDS011;54618;52.018;5.576;2023-05-14T04:52:48;3.75;;;2.78;;
67819;SDS011;54618;52.018;5.576;2023-05-14T04:55:14;3.85;;;2.60;;
67819;SDS011;54618;52.018;5.576;2023-05-14T04:57:39;3.78;;;2.60;;
67819;SDS011;54618;52.018;5.576;2023-05-14T05:00:05;3.92;;;2.65;;
67819;SDS011;54618;52.018;5.576;2023-05-14T05:02:31;3.53;;;2.78;;
67819;SDS011;54618;52.018;5.576;2023-05-14T05:04:58;4.25;;;3.05;;
67819;SDS011;54618;52.018;5.576;2023-05-14T05:07:24;3.95;;;2.80;;
67819;SDS011;54618;52.018;5.576;2023-05-14T05:09:49;4.07;;;2.83;;
67819;SDS011;54618;52.018;5.576;2023-05-14T05:12:15;4.47;;;3.00;;
67819;SDS011;54618;52.018;5.576;2023-05-14T05:14:40;4.95;;;2.83;;
67819;SDS011;54618;52.018;5.576;2023-05-14T05:17:06;4.28;;;2.90;;
67819;SDS011;54618;52.018;5.576;2023-05-14T05:19:31;4.03;;;2.60;;
67819;SDS011;54618;52.018;5.576;2023-05-14T05:21:57;3.50;;;2.40;;
67819;SDS011;54618;52.018;5.576;2023-05-14T05:24:23;4.18;;;2.90;;
67819;SDS011;54618;52.018;5.576;2023-05-14T05:26:48;4.18;;;2.78;;
67819;SDS011;54618;52.018;5.576;2023-05-14T05:29:15;4.40;;;2.72;;
67819;SDS011;54618;52.018;5.576;2023-05-14T05:31:41;3.55;;;2.60;;
67819;SDS011;54618;52.018;5.576;2023-05-14T05:34:07;3.30;;;2.60;;
67819;SDS011;54618;52.018;5.576;2023-05-14T05:36:33;2.95;;;2.35;;
67819;SDS011;54618;52.018;5.576;2023-05-14T05:38:58;3.17;;;2.53;;
67819;SDS011;54618;52.018;5.576;2023-05-14T05:41:24;4.78;;;2.70;;
67819;SDS011;54618;52.018;5.576;2023-05-14T05:43:50;4.38;;;2.50;;
67819;SDS011;54618;52.018;5.576;2023-05-14T05:46:17;3.00;;;2.10;;
67819;SDS011;54618;52.018;5.576;2023-05-14T05:48:43;3.38;;;2.30;;
67819;SDS011;54618;52.018;5.576;2023-05-14T05:51:09;3.58;;;2.40;;
67819;SDS011;54618;52.018;5.576;2023-05-14T05:53:35;3.63;;;2.15;;
67819;SDS011;54618;52.018;5.576;2023-05-14T05:56:00;2.65;;;2.20;;
67819;SDS011;54618;52.018;5.576;2023-05-14T05:58:26;3.25;;;2.10;;
67819;SDS011;54618;52.018;5.576;2023-05-14T06:00:51;3.65;;;2.20;;
67819;SDS011;54618;52.018;5.576;2023-05-14T06:03:17;2.70;;;2.10;;
67819;SDS011;54618;52.018;5.576;2023-05-14T06:05:43;2.92;;;2.10;;
67819;SDS011;54618;52.018;5.576;2023-05-14T06:08:08;3.22;;;2.10;;
67819;SDS011;54618;52.018;5.576;2023-05-14T06:10:34;3.22;;;2.20;;
67819;SDS011;54618;52.018;5.576;2023-05-14T06:13:00;3.08;;;2.10;;
67819;SDS011;54618;52.018;5.576;2023-05-14T06:15:25;3.65;;;2.20;;
67819;SDS011;54618;52.018;5.576;2023-05-14T06:17:51;3.33;;;2.35;;
67819;SDS011;54618;52.018;5.576;2023-05-14T06:20:17;2.75;;;2.10;;
67819;SDS011;54618;52.018;5.576;2023-05-14T06:22:43;2.70;;;2.22;;
67819;SDS011;54618;52.018;5.576;2023-05-14T06:25:08;3.42;;;2.15;;
67819;SDS011;54618;52.018;5.576;2023-05-14T06:27:34;3.13;;;2.30;;
67819;SDS011;54618;52.018;5.576;2023-05-14T06:30:00;2.60;;;2.10;;
67819;SDS011;54618;52.018;5.576;2023-05-14T06:32:25;2.75;;;2.20;;
67819;SDS011;54618;52.018;5.576;2023-05-14T06:34:51;3.10;;;2.00;;
67819;SDS011;54618;52.018;5.576;2023-05-14T06:37:16;3.00;;;2.10;;
67819;SDS011;54618;52.018;5.576;2023-05-14T06:39:42;2.70;;;2.10;;
67819;SDS011;54618;52.018;5.576;2023-05-14T06:42:13;3.75;;;2.38;;
67819;SDS011;54618;52.018;5.576;2023-05-14T06:44:39;3.13;;;2.13;;
67819;SDS011;54618;52.018;5.576;2023-05-14T06:47:05;3.78;;;2.10;;
67819;SDS011;54618;52.018;5.576;2023-05-14T06:49:32;3.75;;;2.05;;
67819;SDS011;54618;52.018;5.576;2023-05-14T06:51:58;3.28;;;2.10;;
67819;SDS011;54618;52.018;5.576;2023-05-14T06:54:24;2.53;;;2.00;;
67819;SDS011;54618;52.018;5.576;2023-05-14T06:56:49;2.97;;;2.20;;
67819;SDS011;54618;52.018;5.576;2023-05-14T06:59:15;3.80;;;2.20;;
67819;SDS011;54618;52.018;5.576;2023-05-14T07:01:40;3.20;;;2.10;;
67819;SDS011;54618;52.018;5.576;2023-05-14T07:04:06;2.95;;;2.13;;
67819;SDS011;54618;52.018;5.576;2023-05-14T07:06:31;3.17;;;2.00;;
67819;SDS011;54618;52.018;5.576;2023-05-14T07:08:57;3.30;;;2.38;;
67819;SDS011;54618;52.018;5.576;2023-05-14T07:11:23;2.60;;;2.10;;
67819;SDS011;54618;52.018;5.576;2023-05-14T07:13:49;2.80;;;2.20;;
67819;SDS011;54618;52.018;5.576;2023-05-14T07:16:14;3.45;;;2.05;;
67819;SDS011;54618;52.018;5.576;2023-05-14T07:18:40;2.95;;;2.30;;
67819;SDS011;54618;52.018;5.576;2023-05-14T07:21:05;2.50;;;1.90;;
67819;SDS011;54618;52.018;5.576;2023-05-14T07:23:31;3.60;;;2.20;;
67819;SDS011;54618;52.018;5.576;2023-05-14T07:25:59;2.55;;;2.13;;
67819;SDS011;54618;52.018;5.576;2023-05-14T07:28:25;3.22;;;1.95;;
67819;SDS011;54618;52.018;5.576;2023-05-14T07:30:50;2.67;;;1.92;;
67819;SDS011;54618;52.018;5.576;2023-05-14T07:33:16;3.55;;;2.08;;
67819;SDS011;54618;52.018;5.576;2023-05-14T07:35:42;2.75;;;1.83;;
67819;SDS011;54618;52.018;5.576;2023-05-14T07:38:07;3.42;;;2.28;;
67819;SDS011;54618;52.018;5.576;2023-05-14T07:40:33;2.72;;;2.20;;
67819;SDS011;54618;52.018;5.576;2023-05-14T07:42:58;2.65;;;2.10;;
67819;SDS011;54618;52.018;5.576;2023-05-14T07:45:24;3.22;;;2.40;;
67819;SDS011;54618;52.018;5.576;2023-05-14T07:47:49;2.85;;;1.92;;
67819;SDS011;54618;52.018;5.576;2023-05-14T07:50:16;2.40;;;1.80;;
67819;SDS011;54618;52.018;5.576;2023-05-14T07:52:42;2.85;;;2.00;;
67819;SDS011;54618;52.018;5.576;2023-05-14T07:55:08;3.35;;;2.10;;
67819;SDS011;54618;52.018;5.576;2023-05-14T07:57:34;3.38;;;1.90;;
67819;SDS011;54618;52.018;5.576;2023-05-14T08:00:01;3.03;;;2.30;;
67819;SDS011;54618;52.018;5.576;2023-05-14T08:02:27;3.85;;;2.00;;
67819;SDS011;54618;52.018;5.576;2023-05-14T08:04:53;3.13;;;2.13;;
67819;SDS011;54618;52.018;5.576;2023-05-14T08:07:19;2.83;;;2.15;;
67819;SDS011;54618;52.018;5.576;2023-05-14T08:09:45;4.28;;;2.55;;
67819;SDS011;54618;52.018;5.576;2023-05-14T08:12:11;5.93;;;3.45;;
67819;SDS011;54618;52.018;5.576;2023-05-14T08:14:36;5.10;;;2.33;;
67819;SDS011;54618;52.018;5.576;2023-05-14T08:17:02;4.35;;;2.30;;
67819;SDS011;54618;52.018;5.576;2023-05-14T08:19:27;3.67;;;2.13;;
67819;SDS011;54618;52.018;5.576;2023-05-14T08:21:53;4.10;;;2.15;;
67819;SDS011;54618;52.018;5.576;2023-05-14T08:24:18;3.55;;;1.83;;
67819;SDS011;54618;52.018;5.576;2023-05-14T08:26:44;4.80;;;2.30;;
67819;SDS011;54618;52.018;5.576;2023-05-14T08:29:10;3.67;;;1.92;;
67819;SDS011;54618;52.018;5.576;2023-05-14T08:31:36;5.32;;;2.10;;
67819;SDS011;54618;52.018;5.576;2023-05-14T08:34:02;3.25;;;1.98;;
67819;SDS011;54618;52.018;5.576;2023-05-14T08:36:27;3.63;;;2.10;;
67819;SDS011;54618;52.018;5.576;2023-05-14T08:38:53;2.45;;;1.88;;
67819;SDS011;54618;52.018;5.576;2023-05-14T08:41:18;4.03;;;1.85;;
67819;SDS011;54618;52.018;5.576;2023-05-14T08:46:41;4.18;;;1.83;;
67819;SDS011;54618;52.018;5.576;2023-05-14T08:51:45;3.17;;;1.90;;
67819;SDS011;54618;52.018;5.576;2023-05-14T08:54:13;3.17;;;1.80;;
67819;SDS011;54618;52.018;5.576;2023-05-14T08:56:40;2.65;;;1.85;;
67819;SDS011;54618;52.018;5.576;2023-05-14T08:59:10;2.50;;;1.90;;
67819;SDS011;54618;52.018;5.576;2023-05-14T09:01:37;4.32;;;2.30;;
67819;SDS011;54618;52.018;5.576;2023-05-14T09:04:04;2.83;;;1.88;;
67819;SDS011;54618;52.018;5.576;2023-05-14T09:06:32;3.67;;;2.00;;
67819;SDS011;54618;52.018;5.576;2023-05-14T09:09:02;4.05;;;1.88;;
67819;SDS011;54618;52.018;5.576;2023-05-14T09:11:28;3.17;;;1.88;;
67819;SDS011;54618;52.018;5.576;2023-05-14T09:13:53;3.83;;;1.80;;
67819;SDS011;54618;52.018;5.576;2023-05-14T09:16:19;3.20;;;2.00;;
67819;SDS011;54618;52.018;5.576;2023-05-14T09:18:46;3.03;;;2.00;;
67819;SDS011;54618;52.018;5.576;2023-05-14T09:21:12;7.28;;;2.03;;
67819;SDS011;54618;52.018;5.576;2023-05-14T09:23:40;6.88;;;3.05;;
67819;SDS011;54618;52.018;5.576;2023-05-14T09:28:39;4.05;;;2.05;;
67819;SDS011;54618;52.018;5.576;2023-05-14T09:31:05;4.53;;;1.92;;
67819;SDS011;54618;52.018;5.576;2023-05-14T09:33:31;5.30;;;2.45;;
67819;SDS011;54618;52.018;5.576;2023-05-14T09:35:57;3.17;;;2.30;;
67819;SDS011;54618;52.018;5.576;2023-05-14T09:38:30;5.47;;;2.13;;
67819;SDS011;54618;52.018;5.576;2023-05-14T09:40:56;2.95;;;1.80;;
67819;SDS011;54618;52.018;5.576;2023-05-14T09:43:23;4.80;;;2.40;;
67819;SDS011;54618;52.018;5.576;2023-05-14T09:45:48;4.53;;;2.42;;
67819;SDS011;54618;52.018;5.576;2023-05-14T09:48:14;2.80;;;2.10;;
67819;SDS011;54618;52.018;5.576;2023-05-14T09:50:41;4.15;;;2.10;;
67819;SDS011;54618;52.018;5.576;2023-05-14T09:53:07;4.35;;;2.15;;
67819;SDS011;54618;52.018;5.576;2023-05-14T09:55:33;4.13;;;1.85;;
67819;SDS011;54618;52.018;5.576;2023-05-14T09:58:03;3.40;;;1.90;;
67819;SDS011;54618;52.018;5.576;2023-05-14T10:00:33;3.20;;;1.90;;
67819;SDS011;54618;52.018;5.576;2023-05-14T10:03:03;4.93;;;1.90;;
67819;SDS011;54618;52.018;5.576;2023-05-14T10:05:32;4.72;;;2.00;;
67819;SDS011;54618;52.018;5.576;2023-05-14T10:08:00;3.75;;;2.00;;
67819;SDS011;54618;52.018;5.576;2023-05-14T10:10:32;3.03;;;2.28;;
67819;SDS011;54618;52.018;5.576;2023-05-14T10:13:03;5.65;;;2.08;;
67819;SDS011;54618;52.018;5.576;2023-05-14T10:18:24;5.05;;;2.08;;
67819;SDS011;54618;52.018;5.576;2023-05-14T10:20:59;3.65;;;2.00;;
67819;SDS011;54618;52.018;5.576;2023-05-14T10:23:29;4.85;;;2.00;;
67819;SDS011;54618;52.018;5.576;2023-05-14T10:25:54;3.05;;;1.85;;
67819;SDS011;54618;52.018;5.576;2023-05-14T10:28:21;3.45;;;2.03;;
67819;SDS011;54618;52.018;5.576;2023-05-14T10:30:47;5.63;;;2.88;;
67819;SDS011;54618;52.018;5.576;2023-05-14T10:33:14;5.38;;;2.30;;
67819;SDS011;54618;52.018;5.576;2023-05-14T10:38:33;7.25;;;1.98;;
67819;SDS011;54618;52.018;5.576;2023-05-14T10:41:01;3.38;;;2.15;;
67819;SDS011;54618;52.018;5.576;2023-05-14T10:43:37;4.32;;;2.10;;
67819;SDS011;54618;52.018;5.576;2023-05-14T10:46:04;4.78;;;1.85;;
67819;SDS011;54618;52.018;5.576;2023-05-14T10:48:30;3.92;;;2.20;;
67819;SDS011;54618;52.018;5.576;2023-05-14T10:50:57;4.00;;;2.08;;
67819;SDS011;54618;52.018;5.576;2023-05-14T10:53:41;3.47;;;2.15;;
67819;SDS011;54618;52.018;5.576;2023-05-14T10:56:08;4.03;;;1.73;;
67819;SDS011;54618;52.018;5.576;2023-05-14T10:58:35;2.33;;;1.80;;
67819;SDS011;54618;52.018;5.576;2023-05-14T11:01:02;3.95;;;1.95;;
67819;SDS011;54618;52.018;5.576;2023-05-14T11:03:30;2.92;;;1.98;;
67819;SDS011;54618;52.018;5.576;2023-05-14T11:05:56;3.95;;;2.00;;
67819;SDS011;54618;52.018;5.576;2023-05-14T11:08:22;2.95;;;1.80;;
67819;SDS011;54618;52.018;5.576;2023-05-14T11:10:50;3.88;;;2.00;;
67819;SDS011;54618;52.018;5.576;2023-05-14T11:13:16;3.03;;;2.20;;
67819;SDS011;54618;52.018;5.576;2023-05-14T11:15:43;5.60;;;1.92;;
67819;SDS011;54618;52.018;5.576;2023-05-14T11:18:12;3.42;;;2.10;;
67819;SDS011;54618;52.018;5.576;2023-05-14T11:20:38;3.85;;;2.33;;
67819;SDS011;54618;52.018;5.576;2023-05-14T11:23:03;3.58;;;2.15;;
67819;SDS011;54618;52.018;5.576;2023-05-14T11:25:29;3.00;;;2.10;;
67819;SDS011;54618;52.018;5.576;2023-05-14T11:27:54;3.50;;;2.22;;
67819;SDS011;54618;52.018;5.576;2023-05-14T11:30:22;4.38;;;2.30;;
67819;SDS011;54618;52.018;5.576;2023-05-14T11:32:48;6.13;;;2.33;;
67819;SDS011;54618;52.018;5.576;2023-05-14T11:35:15;3.90;;;2.53;;
67819;SDS011;54618;52.018;5.576;2023-05-14T11:37:42;5.63;;;2.33;;
67819;SDS011;54618;52.018;5.576;2023-05-14T11:40:13;3.67;;;2.15;;
67819;SDS011;54618;52.018;5.576;2023-05-14T11:42:40;3.35;;;1.92;;
67819;SDS011;54618;52.018;5.576;2023-05-14T11:45:06;3.33;;;2.40;;
67819;SDS011;54618;52.018;5.576;2023-05-14T11:47:35;4.97;;;2.72;;
67819;SDS011;54618;52.018;5.576;2023-05-14T11:50:01;4.65;;;2.63;;
67819;SDS011;54618;52.018;5.576;2023-05-14T11:52:27;3.72;;;2.30;;
67819;SDS011;54618;52.018;5.576;2023-05-14T11:54:53;4.25;;;2.30;;
67819;SDS011;54618;52.018;5.576;2023-05-14T11:57:19;4.43;;;2.63;;
67819;SDS011;54618;52.018;5.576;2023-05-14T11:59:46;3.50;;;2.45;;
67819;SDS011;54618;52.018;5.576;2023-05-14T12:02:13;5.40;;;2.42;;
67819;SDS011;54618;52.018;5.576;2023-05-14T12:04:42;3.45;;;2.42;;
67819;SDS011;54618;52.018;5.576;2023-05-14T12:07:09;5.40;;;2.40;;
67819;SDS011;54618;52.018;5.576;2023-05-14T12:09:40;3.45;;;2.45;;
67819;SDS011;54618;52.018;5.576;2023-05-14T12:12:13;5.97;;;2.58;;
67819;SDS011;54618;52.018;5.576;2023-05-14T12:14:43;3.50;;;2.23;;
67819;SDS011;54618;52.018;5.576;2023-05-14T12:17:16;4.80;;;2.40;;
67819;SDS011;54618;52.018;5.576;2023-05-14T12:19:44;4.53;;;2.42;;
67819;SDS011;54618;52.018;5.576;2023-05-14T12:22:12;4.85;;;2.60;;
67819;SDS011;54618;52.018;5.576;2023-05-14T12:24:40;4.18;;;2.60;;
67819;SDS011;54618;52.018;5.576;2023-05-14T12:27:08;5.22;;;2.53;;
67819;SDS011;54618;52.018;5.576;2023-05-14T12:29:34;3.63;;;2.55;;
67819;SDS011;54618;52.018;5.576;2023-05-14T12:32:02;3.70;;;2.45;;
67819;SDS011;54618;52.018;5.576;2023-05-14T12:34:32;4.47;;;3.30;;
67819;SDS011;54618;52.018;5.576;2023-05-14T12:36:58;5.53;;;3.45;;
67819;SDS011;54618;52.018;5.576;2023-05-14T12:39:23;6.10;;;3.25;;
67819;SDS011;54618;52.018;5.576;2023-05-14T12:41:49;6.20;;;3.60;;
67819;SDS011;54618;52.018;5.576;2023-05-14T12:44:14;4.95;;;2.60;;
67819;SDS011;54618;52.018;5.576;2023-05-14T12:46:40;5.28;;;2.83;;
67819;SDS011;54618;52.018;5.576;2023-05-14T12:49:05;5.78;;;2.80;;
67819;SDS011;54618;52.018;5.576;2023-05-14T12:51:31;4.90;;;2.90;;
67819;SDS011;54618;52.018;5.576;2023-05-14T12:53:57;5.18;;;2.63;;
67819;SDS011;54618;52.018;5.576;2023-05-14T12:56:23;5.20;;;2.60;;
67819;SDS011;54618;52.018;5.576;2023-05-14T12:58:52;4.82;;;2.50;;
67819;SDS011;54618;52.018;5.576;2023-05-14T13:01:19;4.13;;;2.50;;
67819;SDS011;54618;52.018;5.576;2023-05-14T13:03:44;4.72;;;2.40;;
67819;SDS011;54618;52.018;5.576;2023-05-14T13:06:10;4.47;;;2.50;;
67819;SDS011;54618;52.018;5.576;2023-05-14T13:08:35;5.57;;;2.55;;
67819;SDS011;54618;52.018;5.576;2023-05-14T13:11:01;5.18;;;2.20;;
67819;SDS011;54618;52.018;5.576;2023-05-14T13:13:26;5.07;;;2.20;;
67819;SDS011;54618;52.018;5.576;2023-05-14T13:15:52;4.15;;;2.60;;
67819;SDS011;54618;52.018;5.576;2023-05-14T13:18:17;3.67;;;2.28;;
67819;SDS011;54618;52.018;5.576;2023-05-14T13:20:44;3.40;;;2.30;;
67819;SDS011;54618;52.018;5.576;2023-05-14T13:23:10;3.55;;;2.15;;
67819;SDS011;54618;52.018;5.576;2023-05-14T13:25:36;5.18;;;2.20;;
67819;SDS011;54618;52.018;5.576;2023-05-14T13:28:01;5.20;;;2.30;;
67819;SDS011;54618;52.018;5.576;2023-05-14T13:30:27;3.95;;;2.00;;
67819;SDS011;54618;52.018;5.576;2023-05-14T13:32:52;3.75;;;1.83;;
67819;SDS011;54618;52.018;5.576;2023-05-14T13:35:18;2.97;;;2.10;;
67819;SDS011;54618;52.018;5.576;2023-05-14T13:37:43;3.47;;;2.00;;
67819;SDS011;54618;52.018;5.576;2023-05-14T13:40:09;3.05;;;1.92;;
67819;SDS011;54618;52.018;5.576;2023-05-14T13:42:35;3.83;;;2.03;;
67819;SDS011;54618;52.018;5.576;2023-05-14T13:45:03;5.40;;;1.90;;
67819;SDS011;54618;52.018;5.576;2023-05-14T13:47:29;6.53;;;2.30;;
67819;SDS011;54618;52.018;5.576;2023-05-14T13:49:55;4.05;;;2.00;;
67819;SDS011;54618;52.018;5.576;2023-05-14T13:52:21;4.10;;;2.20;;
67819;SDS011;54618;52.018;5.576;2023-05-14T13:54:46;5.57;;;1.90;;
67819;SDS011;54618;52.018;5.576;2023-05-14T13:57:12;8.35;;;2.10;;
67819;SDS011;54618;52.018;5.576;2023-05-14T13:59:38;4.80;;;1.85;;
67819;SDS011;54618;52.018;5.576;2023-05-14T14:02:04;3.50;;;2.13;;
67819;SDS011;54618;52.018;5.576;2023-05-14T14:04:30;3.33;;;1.90;;
67819;SDS011;54618;52.018;5.576;2023-05-14T14:06:55;3.35;;;2.03;;
67819;SDS011;54618;52.018;5.576;2023-05-14T14:09:22;2.55;;;1.83;;
67819;SDS011;54618;52.018;5.576;2023-05-14T14:11:48;2.67;;;1.80;;
67819;SDS011;54618;52.018;5.576;2023-05-14T14:14:13;4.32;;;1.80;;
67819;SDS011;54618;52.018;5.576;2023-05-14T14:16:39;3.30;;;2.00;;
67819;SDS011;54618;52.018;5.576;2023-05-14T14:19:05;4.57;;;2.40;;
67819;SDS011;54618;52.018;5.576;2023-05-14T14:21:30;3.63;;;1.88;;
67819;SDS011;54618;52.018;5.576;2023-05-14T14:23:56;4.20;;;1.98;;
67819;SDS011;54618;52.018;5.576;2023-05-14T14:26:22;6.03;;;2.03;;
67819;SDS011;54618;52.018;5.576;2023-05-14T14:28:47;4.07;;;2.00;;
67819;SDS011;54618;52.018;5.576;2023-05-14T14:31:13;3.55;;;2.20;;
67819;SDS011;54618;52.018;5.576;2023-05-14T14:33:39;5.70;;;2.20;;
67819;SDS011;54618;52.018;5.576;2023-05-14T14:36:05;5.30;;;2.30;;
67819;SDS011;54618;52.018;5.576;2023-05-14T14:38:31;3.25;;;2.10;;
67819;SDS011;54618;52.018;5.576;2023-05-14T14:40:56;3.30;;;1.85;;
67819;SDS011;54618;52.018;5.576;2023-05-14T14:43:22;3.40;;;2.20;;
67819;SDS011;54618;52.018;5.576;2023-05-14T14:45:48;4.40;;;1.77;;
67819;SDS011;54618;52.018;5.576;2023-05-14T14:48:27;4.63;;;2.20;;
67819;SDS011;54618;52.018;5.576;2023-05-14T14:51:07;3.90;;;2.05;;
67819;SDS011;54618;52.018;5.576;2023-05-14T14:53:33;5.43;;;2.20;;
67819;SDS011;54618;52.018;5.576;2023-05-14T14:55:59;3.83;;;2.38;;
67819;SDS011;54618;52.018;5.576;2023-05-14T14:58:25;3.97;;;2.35;;